Belle River, Canada
Current Conditions -  °F | °C
As of 12:00 PM on Saturday 25 Oct 2014 (Local Time) from CYQG Reporting Station
Haze Haze  
Wind Chill: 59°   Ceiling: 1800
Heat Index: 59°   Visibility: 6mi
Dew Point: 54°   Wind: 13mph
Humidity: 82%   Direction: 280°W
Pressure: 29.8"   Gusts: 22mph
Location:  42.3°N, 82.72°W
Report Text: CYQG 251600Z 28011G19KT 6SM BR BKN018 15/12 A2980 RMK CU7 SLP090 DENSITY ALT 900FT
Loading
Personal Weather Stations






























Interactive Weather Map New forecast layout! Learn more

10-Day Weather Forecast

Advertisements
Track Severe Weather on mobile